createdAt,value
2024-04-30T00:04:52.864Z,2.30
2024-04-30T00:09:54.539Z,2.28
2024-04-30T00:14:57.121Z,2.40
2024-04-30T00:19:58.881Z,2.38
2024-04-30T00:25:00.774Z,2.28
2024-04-30T00:30:02.419Z,2.50
2024-04-30T00:35:04.432Z,2.10
2024-04-30T00:40:06.510Z,2.30
2024-04-30T00:45:08.303Z,2.42
2024-04-30T00:50:10.222Z,2.50
2024-04-30T00:55:12.101Z,3.25
2024-04-30T01:00:14.002Z,2.28
2024-04-30T01:05:15.646Z,2.55
2024-04-30T01:10:19.093Z,2.67
2024-04-30T01:15:20.818Z,2.95
2024-04-30T01:20:26.230Z,3.35
2024-04-30T01:25:28.460Z,2.90
2024-04-30T01:30:30.460Z,2.85
2024-04-30T01:35:32.132Z,2.83
2024-04-30T01:40:33.771Z,2.70
2024-04-30T01:45:35.630Z,2.75
2024-04-30T01:50:37.465Z,3.05
2024-04-30T01:55:39.167Z,2.55
2024-04-30T02:00:40.840Z,2.67
2024-04-30T02:05:42.474Z,3.20
2024-04-30T02:10:44.281Z,3.05
2024-04-30T02:15:45.974Z,3.83
2024-04-30T02:20:47.660Z,3.67
2024-04-30T02:25:49.302Z,3.38
2024-04-30T02:31:09.517Z,3.33
2024-04-30T02:36:11.365Z,3.00
2024-04-30T02:41:13.001Z,3.10
2024-04-30T02:46:14.868Z,3.80
2024-04-30T02:51:22.635Z,3.35
2024-04-30T02:56:24.399Z,3.55
2024-04-30T03:01:26.221Z,3.10
2024-04-30T03:06:27.963Z,3.40
2024-04-30T03:11:29.793Z,3.40
2024-04-30T03:16:31.576Z,3.65
2024-04-30T03:21:33.334Z,3.42
2024-04-30T03:26:40.147Z,3.25
2024-04-30T03:31:41.817Z,5.68
2024-04-30T03:36:43.488Z,3.72
2024-04-30T03:41:45.128Z,3.88
2024-04-30T03:46:47.307Z,3.90
2024-04-30T03:51:48.936Z,3.53
2024-04-30T03:56:50.607Z,3.38
2024-04-30T04:01:52.772Z,3.47
2024-04-30T04:06:54.651Z,3.28
2024-04-30T04:12:15.054Z,3.35
2024-04-30T04:17:19.118Z,3.63
2024-04-30T04:22:20.918Z,2.70
2024-04-30T04:27:22.584Z,3.70
2024-04-30T04:32:26.040Z,3.70
2024-04-30T04:37:28.136Z,4.25
2024-04-30T04:42:29.967Z,4.78
2024-04-30T04:47:31.980Z,4.55
2024-04-30T04:52:33.642Z,4.60
2024-04-30T04:57:35.245Z,4.60
2024-04-30T05:02:37.418Z,4.85
2024-04-30T05:07:39.034Z,4.60
2024-04-30T05:12:40.627Z,4.03
2024-04-30T05:17:42.633Z,4.53
2024-04-30T05:22:44.398Z,4.25
2024-04-30T05:27:46.064Z,3.80
2024-04-30T05:32:48.092Z,3.88
2024-04-30T05:37:49.749Z,4.05
2024-04-30T05:42:51.470Z,4.63
2024-04-30T05:47:53.161Z,4.15
2024-04-30T05:52:54.847Z,4.20
2024-04-30T05:57:56.459Z,3.78
2024-04-30T06:03:01.687Z,4.78
2024-04-30T06:08:07.464Z,4.03
2024-04-30T06:13:09.144Z,3.90
2024-04-30T06:18:10.894Z,4.45
2024-04-30T06:23:12.650Z,3.83
2024-04-30T06:28:14.327Z,4.20
2024-04-30T06:33:25.006Z,4.30
2024-04-30T06:38:26.785Z,5.15
2024-04-30T06:43:28.524Z,4.47
2024-04-30T06:48:30.252Z,4.20
2024-04-30T06:53:31.967Z,4.53
2024-04-30T06:58:33.642Z,4.90
2024-04-30T07:03:35.320Z,5.00
2024-04-30T07:08:37.010Z,4.68
2024-04-30T07:13:38.772Z,4.45
2024-04-30T07:18:43.280Z,4.30
2024-04-30T07:23:45.109Z,4.85
2024-04-30T07:28:47.370Z,4.60
2024-04-30T07:33:49.483Z,5.15
2024-04-30T07:38:51.238Z,5.20
2024-04-30T07:43:52.966Z,4.35
2024-04-30T07:48:56.003Z,5.15
2024-04-30T07:53:57.697Z,4.78
2024-04-30T07:58:59.367Z,5.32
2024-04-30T08:04:01.103Z,4.75
2024-04-30T08:09:02.856Z,4.80
2024-04-30T08:14:04.919Z,4.63
2024-04-30T08:19:06.688Z,5.47
2024-04-30T08:24:08.501Z,5.18
2024-04-30T08:29:10.212Z,4.75
2024-04-30T08:34:12.305Z,4.78
2024-04-30T08:39:14.002Z,5.65
2024-04-30T08:44:16.559Z,5.07
2024-04-30T08:49:28.154Z,5.03
2024-04-30T08:54:37.154Z,5.13
2024-04-30T08:59:39.134Z,5.50
2024-04-30T09:04:41.578Z,6.25
2024-04-30T09:09:43.213Z,4.25
2024-04-30T09:14:44.822Z,4.85
2024-04-30T09:19:46.530Z,4.80
2024-04-30T09:24:49.018Z,5.47
2024-04-30T09:29:50.745Z,5.75
2024-04-30T09:34:54.583Z,5.32
2024-04-30T09:39:58.716Z,5.35
2024-04-30T09:45:00.849Z,4.63
2024-04-30T09:50:02.660Z,5.15
2024-04-30T09:55:07.309Z,5.45
2024-04-30T10:00:09.961Z,5.05
2024-04-30T10:05:14.914Z,5.05
2024-04-30T10:10:30.237Z,5.13
2024-04-30T10:15:32.258Z,4.47
2024-04-30T10:20:34.143Z,4.05
2024-04-30T10:25:35.854Z,3.95
2024-04-30T10:30:37.722Z,4.20
2024-04-30T10:35:43.203Z,4.55
2024-04-30T10:40:44.971Z,4.10
2024-04-30T10:45:46.644Z,4.18
2024-04-30T10:50:48.339Z,4.63
2024-04-30T10:55:50.105Z,4.78
2024-04-30T11:00:51.827Z,5.07
2024-04-30T11:06:00.068Z,4.95
2024-04-30T11:11:11.593Z,4.75
2024-04-30T11:16:16.156Z,4.97
2024-04-30T11:21:21.879Z,5.68
2024-04-30T11:26:23.642Z,4.85
2024-04-30T11:31:25.530Z,4.18
2024-04-30T11:36:27.571Z,5.10
2024-04-30T11:41:29.275Z,4.95
2024-04-30T11:46:31.017Z,4.80
2024-04-30T11:51:32.686Z,4.88
2024-04-30T11:56:34.420Z,4.70
2024-04-30T12:01:37.463Z,5.85
2024-04-30T12:06:39.328Z,4.95
2024-04-30T12:11:41.098Z,6.30
2024-04-30T12:16:47.058Z,5.50
2024-04-30T12:21:49.927Z,5.70
2024-04-30T12:26:51.563Z,6.05
2024-04-30T12:31:56.269Z,4.75
2024-04-30T12:36:57.991Z,5.82
2024-04-30T12:42:00.943Z,5.60
2024-04-30T12:47:02.924Z,5.55
2024-04-30T12:52:04.825Z,5.68
2024-04-30T12:57:06.588Z,5.22
2024-04-30T13:07:23.621Z,5.55
2024-04-30T13:12:25.375Z,5.50
2024-04-30T13:17:28.001Z,5.43
2024-04-30T13:22:29.975Z,5.22
2024-04-30T13:27:31.619Z,4.88
2024-04-30T13:32:34.486Z,5.13
2024-04-30T13:37:37.216Z,5.30
2024-04-30T13:42:41.827Z,4.90
2024-04-30T13:47:43.680Z,4.38
2024-04-30T13:52:46.006Z,5.28
2024-04-30T13:57:47.821Z,4.97
2024-04-30T14:02:49.517Z,4.72
2024-04-30T14:07:51.340Z,4.03
2024-04-30T14:12:53.386Z,3.30
2024-04-30T14:17:55.116Z,4.55
2024-04-30T14:22:57.146Z,4.50
2024-04-30T14:27:59.039Z,3.50
2024-04-30T14:33:00.956Z,4.38
2024-04-30T14:38:02.644Z,5.15
2024-04-30T14:43:04.394Z,3.45
2024-04-30T14:48:06.267Z,3.50
2024-04-30T14:53:08.079Z,3.30
2024-04-30T14:58:09.839Z,3.33
2024-04-30T15:03:12.778Z,3.00
2024-04-30T15:08:14.538Z,3.92
2024-04-30T15:13:16.541Z,3.28
2024-04-30T15:18:18.378Z,3.40
2024-04-30T15:23:20.084Z,3.10
2024-04-30T15:28:21.801Z,3.25
2024-04-30T15:33:23.772Z,3.17
2024-04-30T15:38:25.584Z,2.92
2024-04-30T15:43:29.728Z,2.42
2024-04-30T15:48:31.785Z,2.90
2024-04-30T15:53:33.622Z,2.38
2024-04-30T15:58:36.525Z,2.60
2024-04-30T16:03:38.458Z,3.10
2024-04-30T16:08:40.545Z,2.25
2024-04-30T16:13:42.301Z,2.20
2024-04-30T16:18:44.454Z,2.70
2024-04-30T16:23:46.858Z,2.63
2024-04-30T16:28:48.746Z,2.33
2024-04-30T16:33:50.536Z,2.33
2024-04-30T16:38:52.282Z,2.83
2024-04-30T16:43:54.085Z,2.30
2024-04-30T16:48:57.558Z,2.25
2024-04-30T16:53:59.567Z,2.45
2024-04-30T16:59:01.509Z,2.40
2024-04-30T17:04:03.445Z,2.50
2024-04-30T17:09:06.092Z,2.63
2024-04-30T17:14:08.545Z,2.85
2024-04-30T17:19:10.606Z,2.35
2024-04-30T17:24:15.731Z,2.45
2024-04-30T17:29:17.776Z,2.60
2024-04-30T17:34:19.410Z,2.15
2024-04-30T17:39:21.296Z,2.30
2024-04-30T17:44:22.999Z,2.55
2024-04-30T17:49:24.738Z,2.53
2024-04-30T17:54:26.484Z,2.75
2024-04-30T17:59:28.259Z,2.70
2024-04-30T18:04:29.970Z,3.13
2024-04-30T18:09:31.691Z,3.53
2024-04-30T18:14:33.365Z,2.88
2024-04-30T18:19:35.066Z,3.03
2024-04-30T18:24:36.860Z,2.80
2024-04-30T18:29:38.441Z,3.30
2024-04-30T18:34:40.394Z,2.53
2024-04-30T18:39:42.089Z,2.90
2024-04-30T18:44:44.843Z,2.85
2024-04-30T18:49:46.579Z,2.60
2024-04-30T18:54:48.256Z,3.15
2024-04-30T18:59:49.992Z,2.42
2024-04-30T19:04:51.696Z,3.22
2024-04-30T19:09:53.423Z,2.65
2024-04-30T19:14:55.181Z,2.55
2024-04-30T19:19:57.506Z,2.33
2024-04-30T19:24:59.359Z,2.50
2024-04-30T19:30:03.481Z,2.50
2024-04-30T19:35:05.348Z,2.60
2024-04-30T19:40:07.344Z,2.47
2024-04-30T19:45:09.217Z,2.30
2024-04-30T19:50:10.868Z,2.25
2024-04-30T19:55:12.507Z,2.63
2024-04-30T20:00:14.277Z,2.70
2024-04-30T20:05:16.044Z,2.92
2024-04-30T20:10:17.669Z,2.40
2024-04-30T20:15:19.329Z,2.40
2024-04-30T20:20:21.031Z,2.42
2024-04-30T20:25:22.624Z,2.58
2024-04-30T20:30:24.521Z,2.80
2024-04-30T20:35:26.119Z,3.30
2024-04-30T20:40:27.995Z,3.10
2024-04-30T20:45:29.676Z,3.00
2024-04-30T20:50:31.284Z,2.65
2024-04-30T20:55:32.880Z,3.10
2024-04-30T21:00:34.650Z,3.70
2024-04-30T21:05:36.347Z,3.53
2024-04-30T21:10:38.010Z,3.83
2024-04-30T21:15:39.706Z,3.80
2024-04-30T21:20:41.445Z,4.40
2024-04-30T21:25:43.001Z,3.67
2024-04-30T21:30:44.645Z,4.70
2024-04-30T21:35:46.299Z,5.22
2024-04-30T21:40:47.957Z,4.80
2024-04-30T21:45:49.582Z,4.90
2024-04-30T21:50:51.253Z,5.93
2024-04-30T21:55:52.925Z,5.80
2024-04-30T22:00:54.688Z,5.93
2024-04-30T22:05:57.994Z,5.75
2024-04-30T22:10:59.702Z,6.38
2024-04-30T22:16:02.855Z,6.68
2024-04-30T22:21:11.158Z,7.10
2024-04-30T22:26:12.927Z,6.80
2024-04-30T22:31:17.386Z,7.75
2024-04-30T22:36:20.050Z,8.05
2024-04-30T22:41:21.836Z,8.90
2024-04-30T22:46:23.513Z,8.05
2024-04-30T22:51:31.045Z,8.15
2024-04-30T22:56:34.572Z,8.18
2024-04-30T23:01:36.562Z,9.00
2024-04-30T23:06:38.430Z,8.43
2024-04-30T23:11:40.053Z,8.30
2024-04-30T23:16:41.685Z,8.93
2024-04-30T23:21:43.874Z,8.38
2024-04-30T23:26:45.483Z,9.80
2024-04-30T23:31:47.142Z,9.88
2024-04-30T23:36:48.801Z,10.35
2024-04-30T23:41:51.117Z,9.13
2024-04-30T23:46:52.846Z,8.93
2024-04-30T23:51:54.552Z,9.68
2024-04-30T23:56:56.177Z,8.38
